createdAt,value
2017-11-09T00:00:57.249Z,93.40
2017-11-09T00:03:24.975Z,93.30
2017-11-09T00:05:59.183Z,93.50
2017-11-09T00:08:26.982Z,93.50
2017-11-09T00:10:55.327Z,93.40
2017-11-09T00:13:22.924Z,93.40
2017-11-09T00:15:50.721Z,93.70
2017-11-09T00:18:18.328Z,93.50
2017-11-09T00:20:45.897Z,93.30
2017-11-09T00:23:13.629Z,93.50
2017-11-09T00:25:41.212Z,93.30
2017-11-09T00:28:08.826Z,93.40
2017-11-09T00:30:36.656Z,93.50
2017-11-09T00:33:04.232Z,93.70
2017-11-09T00:35:31.809Z,93.60
2017-11-09T00:38:00.302Z,93.90
2017-11-09T00:40:28.661Z,93.80
2017-11-09T00:42:56.241Z,93.80
2017-11-09T00:45:23.949Z,94.00
2017-11-09T00:47:51.535Z,93.80
2017-11-09T00:50:19.115Z,93.90
2017-11-09T00:52:46.901Z,93.70
2017-11-09T00:55:14.482Z,93.60
2017-11-09T00:57:42.058Z,93.70
2017-11-09T01:00:09.698Z,93.80
2017-11-09T01:02:37.286Z,93.80
2017-11-09T01:05:04.863Z,93.80
2017-11-09T01:07:32.778Z,93.80
2017-11-09T01:10:00.360Z,93.90
2017-11-09T01:12:28.711Z,93.90
2017-11-09T01:14:56.513Z,93.90
2017-11-09T01:17:24.094Z,93.90
2017-11-09T01:19:52.001Z,93.90
2017-11-09T01:22:19.622Z,93.90
2017-11-09T01:24:47.213Z,93.80
2017-11-09T01:27:14.785Z,93.80
2017-11-09T01:29:42.564Z,93.90
2017-11-09T01:32:10.151Z,93.90
2017-11-09T01:34:37.737Z,93.90
2017-11-09T01:37:05.466Z,93.90
2017-11-09T01:39:33.042Z,93.70
2017-11-09T01:42:00.618Z,93.90
2017-11-09T01:44:29.758Z,94.10
2017-11-09T01:46:57.334Z,94.10
2017-11-09T01:49:24.919Z,94.20
2017-11-09T01:51:52.558Z,94.30
2017-11-09T01:54:20.912Z,94.30
2017-11-09T01:56:48.493Z,94.30
2017-11-09T01:59:16.286Z,94.40
2017-11-09T02:01:43.866Z,94.40
2017-11-09T02:04:12.216Z,94.40
2017-11-09T02:06:39.857Z,94.30
2017-11-09T02:09:07.439Z,94.40
2017-11-09T02:11:35.028Z,94.60
2017-11-09T02:14:02.658Z,94.40
2017-11-09T02:16:30.989Z,94.60
2017-11-09T02:19:02.299Z,94.60
2017-11-09T02:21:29.903Z,94.80
2017-11-09T02:23:57.488Z,94.70
2017-11-09T02:26:25.118Z,94.90
2017-11-09T02:28:53.477Z,95.00
2017-11-09T02:31:21.058Z,95.00
2017-11-09T02:33:49.478Z,95.10
2017-11-09T02:36:17.055Z,95.10
2017-11-09T02:38:44.643Z,95.20
2017-11-09T02:41:12.292Z,95.10
2017-11-09T02:43:40.634Z,95.30
2017-11-09T02:46:08.238Z,95.30
2017-11-09T02:48:35.873Z,95.20
2017-11-09T02:51:03.459Z,95.30
2017-11-09T02:53:31.040Z,95.30
2017-11-09T02:55:59.663Z,95.40
2017-11-09T02:58:28.033Z,95.30
2017-11-09T03:00:55.613Z,95.20
2017-11-09T03:03:24.200Z,95.30
2017-11-09T03:05:51.776Z,95.30
2017-11-09T03:08:19.357Z,95.00
2017-11-09T03:10:47.760Z,95.40
2017-11-09T03:13:15.337Z,95.40
2017-11-09T03:15:42.909Z,95.30
2017-11-09T03:18:10.757Z,95.30
2017-11-09T03:20:39.110Z,95.60
2017-11-09T03:23:06.699Z,95.40
2017-11-09T03:25:34.342Z,95.30
2017-11-09T03:28:01.921Z,95.50
2017-11-09T03:30:29.498Z,95.50
2017-11-09T03:32:57.134Z,95.50
2017-11-09T03:35:24.731Z,95.40
2017-11-09T03:37:52.323Z,95.30
2017-11-09T03:40:20.126Z,95.40
2017-11-09T03:42:47.753Z,95.40
2017-11-09T03:45:15.330Z,95.60
2017-11-09T03:47:42.965Z,95.60
2017-11-09T03:50:11.309Z,95.50
2017-11-09T03:52:38.898Z,95.50
2017-11-09T03:55:06.549Z,95.50
2017-11-09T03:57:34.142Z,95.70
2017-11-09T04:00:02.488Z,95.70
2017-11-09T04:02:30.128Z,95.70
2017-11-09T04:04:57.712Z,95.70
2017-11-09T04:07:25.291Z,95.70
2017-11-09T04:09:53.130Z,95.70
2017-11-09T04:12:20.705Z,95.80
2017-11-09T04:14:48.281Z,95.70
2017-11-09T04:17:16.818Z,95.80
2017-11-09T04:19:44.393Z,95.80
2017-11-09T04:22:11.961Z,95.70
2017-11-09T04:24:39.601Z,95.70
2017-11-09T04:27:07.189Z,95.70
2017-11-09T04:29:34.769Z,95.70
2017-11-09T04:32:02.396Z,95.70
2017-11-09T04:34:30.430Z,95.70
2017-11-09T04:36:58.045Z,95.70
2017-11-09T04:39:25.726Z,95.70
2017-11-09T04:41:53.495Z,95.80
2017-11-09T04:44:22.962Z,95.80
2017-11-09T04:46:50.621Z,95.80
2017-11-09T04:49:18.343Z,95.60
2017-11-09T04:51:45.926Z,95.60
2017-11-09T04:54:13.723Z,95.50
2017-11-09T04:56:42.062Z,95.70
2017-11-09T04:59:09.649Z,95.70
2017-11-09T05:01:37.445Z,95.60
2017-11-09T05:04:05.026Z,95.60
2017-11-09T05:06:33.467Z,95.80
2017-11-09T05:09:01.142Z,95.80
2017-11-09T05:11:28.814Z,96.00
2017-11-09T05:13:56.401Z,96.00
2017-11-09T05:16:24.029Z,95.90
2017-11-09T05:18:52.370Z,95.80
2017-11-09T05:21:19.962Z,95.80
2017-11-09T05:23:47.615Z,95.80
2017-11-09T05:26:15.494Z,95.70
2017-11-09T05:28:43.070Z,95.90
2017-11-09T05:31:10.705Z,95.90
2017-11-09T05:33:38.286Z,96.00
2017-11-09T05:36:05.857Z,96.00
2017-11-09T05:38:34.538Z,96.00
2017-11-09T05:41:02.626Z,96.10
2017-11-09T05:43:30.231Z,96.10
2017-11-09T05:45:58.058Z,96.10
2017-11-09T05:48:26.482Z,96.10
2017-11-09T05:50:54.058Z,96.10
2017-11-09T05:53:21.677Z,96.20
2017-11-09T05:55:50.017Z,96.40
2017-11-09T05:58:17.606Z,96.10
2017-11-09T06:00:45.234Z,96.20
2017-11-09T06:03:12.823Z,96.30
2017-11-09T06:05:40.407Z,96.30
2017-11-09T06:08:08.052Z,96.20
2017-11-09T06:10:35.640Z,96.20
2017-11-09T06:13:03.231Z,96.20
2017-11-09T06:15:30.869Z,96.30
2017-11-09T06:17:58.453Z,96.20
2017-11-09T06:20:26.030Z,96.00
2017-11-09T06:22:53.665Z,96.10
2017-11-09T06:25:22.100Z,96.30
2017-11-09T06:27:49.682Z,96.20
2017-11-09T06:30:17.300Z,96.10
2017-11-09T06:32:45.647Z,96.30
2017-11-09T06:35:13.242Z,96.20
2017-11-09T06:37:41.028Z,96.20
2017-11-09T06:40:09.374Z,96.50
2017-11-09T06:42:36.950Z,96.70
2017-11-09T06:45:04.761Z,96.70
2017-11-09T06:47:32.353Z,96.50
2017-11-09T06:49:59.935Z,96.30
2017-11-09T06:52:29.463Z,96.20
2017-11-09T06:54:57.041Z,96.20
2017-11-09T06:57:24.614Z,96.00
2017-11-09T06:59:52.249Z,95.60
2017-11-09T07:02:19.830Z,95.60
2017-11-09T07:04:48.177Z,95.70
2017-11-09T07:07:15.986Z,95.70
2017-11-09T07:09:44.375Z,95.70
2017-11-09T07:12:11.947Z,95.70
2017-11-09T07:14:40.347Z,96.00
2017-11-09T07:17:08.689Z,95.70
2017-11-09T07:19:36.349Z,95.70
2017-11-09T07:22:04.165Z,95.70
2017-11-09T07:24:31.737Z,95.60
2017-11-09T07:26:59.315Z,95.60
2017-11-09T07:29:26.939Z,95.60
2017-11-09T07:31:54.525Z,95.80
2017-11-09T07:34:22.099Z,95.60
2017-11-09T07:36:49.813Z,95.50
2017-11-09T07:39:17.399Z,95.30
2017-11-09T07:41:45.835Z,95.00
2017-11-09T07:44:13.638Z,95.00
2017-11-09T07:46:42.718Z,95.30
2017-11-09T07:49:10.317Z,95.30
2017-11-09T07:51:37.949Z,95.10
2017-11-09T07:54:05.626Z,95.40
2017-11-09T07:56:33.264Z,95.40
2017-11-09T07:59:00.898Z,95.40
2017-11-09T08:01:28.471Z,95.60
2017-11-09T08:03:56.037Z,95.50
2017-11-09T08:06:23.793Z,95.70
2017-11-09T08:08:51.377Z,95.60
2017-11-09T08:11:18.963Z,95.80
2017-11-09T08:13:46.589Z,95.80
2017-11-09T08:16:14.166Z,95.60
2017-11-09T08:18:41.742Z,95.40
2017-11-09T08:21:09.368Z,95.50
2017-11-09T08:23:36.955Z,95.50
2017-11-09T08:26:21.199Z,95.60
2017-11-09T08:28:50.707Z,95.60
2017-11-09T08:31:20.642Z,95.60
2017-11-09T08:33:48.225Z,95.50
2017-11-09T08:36:15.817Z,95.30
2017-11-09T08:38:44.346Z,94.60
2017-11-09T08:41:11.926Z,94.60
2017-11-09T08:43:39.512Z,94.70
2017-11-09T08:46:07.141Z,94.50
2017-11-09T08:48:34.716Z,94.30
2017-11-09T08:51:02.295Z,94.40
2017-11-09T08:53:30.084Z,94.30
2017-11-09T08:55:57.658Z,94.40
2017-11-09T08:58:25.249Z,94.50
2017-11-09T09:00:52.877Z,94.00
2017-11-09T09:03:20.445Z,94.30
2017-11-09T09:05:48.025Z,94.00
2017-11-09T09:08:15.708Z,93.90
2017-11-09T09:10:43.288Z,93.90
2017-11-09T09:13:10.955Z,93.70
2017-11-09T09:15:38.769Z,93.70
2017-11-09T09:18:06.360Z,93.60
2017-11-09T09:20:33.953Z,93.60
2017-11-09T09:23:01.645Z,93.70
2017-11-09T09:25:34.985Z,93.60
2017-11-09T09:28:02.755Z,93.80
2017-11-09T09:30:30.948Z,93.80
2017-11-09T09:33:00.225Z,93.70
2017-11-09T09:35:32.685Z,93.70
2017-11-09T09:38:06.546Z,93.90
2017-11-09T09:40:36.894Z,93.90
2017-11-09T09:43:04.485Z,94.00
2017-11-09T09:45:32.062Z,94.00
2017-11-09T09:47:59.936Z,94.10
2017-11-09T09:50:27.538Z,94.00
2017-11-09T09:52:55.142Z,94.10
2017-11-09T09:55:22.961Z,93.90
2017-11-09T09:57:50.541Z,94.10
2017-11-09T10:00:18.881Z,94.40
2017-11-09T10:02:46.497Z,94.30
2017-11-09T10:05:14.074Z,94.40
2017-11-09T10:07:42.425Z,94.70
2017-11-09T10:10:10.053Z,94.70
2017-11-09T10:12:38.393Z,94.70
2017-11-09T10:15:05.971Z,94.60
2017-11-09T10:17:33.716Z,94.50
2017-11-09T10:20:01.295Z,94.20
2017-11-09T10:22:28.878Z,94.10
2017-11-09T10:24:57.047Z,94.10
2017-11-09T10:27:24.719Z,94.00
2017-11-09T10:29:52.303Z,94.00
2017-11-09T10:32:19.927Z,93.80
2017-11-09T10:34:48.290Z,93.90
2017-11-09T10:37:15.862Z,93.90
2017-11-09T10:39:43.491Z,93.80
2017-11-09T10:42:11.078Z,93.50
2017-11-09T10:44:38.653Z,93.40
2017-11-09T10:47:06.285Z,93.50
2017-11-09T10:49:34.702Z,93.20
2017-11-09T10:52:02.282Z,93.20
2017-11-09T10:54:29.919Z,93.20
2017-11-09T10:56:58.269Z,92.30
2017-11-09T10:59:25.846Z,92.80
2017-11-09T11:01:53.502Z,92.90
2017-11-09T11:04:21.079Z,92.70
2017-11-09T11:06:48.659Z,92.90
2017-11-09T11:09:16.285Z,93.00
2017-11-09T11:11:43.866Z,93.20
2017-11-09T11:14:11.546Z,93.30
2017-11-09T11:16:39.169Z,93.30
2017-11-09T11:19:07.538Z,93.70
2017-11-09T11:21:35.124Z,93.70
2017-11-09T11:24:02.753Z,93.70
2017-11-09T11:26:30.333Z,93.80
2017-11-09T11:28:57.912Z,93.80
2017-11-09T11:31:25.533Z,93.70
2017-11-09T11:33:53.869Z,93.30
2017-11-09T11:36:21.452Z,93.30
2017-11-09T11:38:49.148Z,93.00
2017-11-09T11:41:16.734Z,92.80
2017-11-09T11:43:45.167Z,94.00
2017-11-09T11:46:12.800Z,94.00
2017-11-09T11:48:41.166Z,92.60
2017-11-09T11:51:08.794Z,92.60
2017-11-09T11:53:36.678Z,91.10
2017-11-09T11:56:04.271Z,90.80
2017-11-09T11:58:31.861Z,90.80
2017-11-09T12:00:59.702Z,90.90
2017-11-09T12:03:27.283Z,90.80
2017-11-09T12:05:54.874Z,90.70
2017-11-09T12:08:22.520Z,90.70
2017-11-09T12:10:50.102Z,90.70
2017-11-09T12:13:19.506Z,90.50
2017-11-09T12:15:47.134Z,90.50
2017-11-09T12:18:15.570Z,90.40
2017-11-09T12:20:43.174Z,90.40
2017-11-09T12:23:10.962Z,90.30
2017-11-09T12:25:38.555Z,90.20
2017-11-09T12:28:06.923Z,90.10
2017-11-09T12:30:34.706Z,90.10
2017-11-09T12:33:02.301Z,90.20
2017-11-09T12:35:29.908Z,90.50
2017-11-09T12:37:57.669Z,90.40
2017-11-09T12:40:25.264Z,90.30
2017-11-09T12:42:52.859Z,90.50
2017-11-09T12:45:20.637Z,90.70
2017-11-09T12:47:49.010Z,90.60
2017-11-09T12:50:18.221Z,90.40
2017-11-09T12:52:45.853Z,90.40
2017-11-09T12:55:13.439Z,90.40
2017-11-09T12:57:41.035Z,90.60
2017-11-09T13:00:08.854Z,90.70
2017-11-09T13:02:37.206Z,90.70
2017-11-09T13:05:04.954Z,90.70
2017-11-09T13:07:32.591Z,90.50
2017-11-09T13:10:00.977Z,91.50
2017-11-09T13:12:29.341Z,91.50
2017-11-09T13:14:56.986Z,91.50
2017-11-09T13:17:24.570Z,90.80
2017-11-09T13:19:52.160Z,91.50
2017-11-09T13:22:19.803Z,90.80
2017-11-09T13:24:47.394Z,90.90
2017-11-09T13:27:14.987Z,90.90
2017-11-09T13:29:42.710Z,90.90
2017-11-09T13:32:10.295Z,90.90
2017-11-09T13:34:37.877Z,91.00
2017-11-09T13:37:05.501Z,90.80
2017-11-09T13:39:33.924Z,91.30
2017-11-09T13:42:01.597Z,91.30
2017-11-09T13:44:29.530Z,91.20
2017-11-09T13:46:57.882Z,91.10
2017-11-09T13:49:25.469Z,91.00
2017-11-09T13:51:53.232Z,91.00
2017-11-09T13:54:20.890Z,91.20
2017-11-09T13:56:48.475Z,91.20
2017-11-09T13:59:16.375Z,91.90
2017-11-09T14:01:44.182Z,91.90
2017-11-09T14:04:12.524Z,91.90
2017-11-09T14:06:40.327Z,91.90
2017-11-09T14:09:07.898Z,92.00
2017-11-09T14:11:35.479Z,92.30
2017-11-09T14:14:04.060Z,92.60
2017-11-09T14:16:31.649Z,92.60
2017-11-09T14:19:00.009Z,92.80
2017-11-09T14:21:27.801Z,92.80
2017-11-09T14:23:55.401Z,92.60
2017-11-09T14:26:23.762Z,92.80
2017-11-09T14:28:51.397Z,92.70
2017-11-09T14:31:19.001Z,92.80
2017-11-09T14:33:46.582Z,92.90
2017-11-09T14:36:14.459Z,93.20
2017-11-09T14:38:42.041Z,93.40
2017-11-09T14:41:10.414Z,93.50
2017-11-09T14:43:38.048Z,93.50
2017-11-09T14:46:05.723Z,93.50
2017-11-09T14:48:33.306Z,93.50
2017-11-09T14:51:01.044Z,93.40
2017-11-09T14:53:28.659Z,93.40
2017-11-09T14:55:56.237Z,93.70
2017-11-09T14:58:23.882Z,93.70
2017-11-09T15:00:51.459Z,93.70
2017-11-09T15:03:19.030Z,93.80
2017-11-09T15:05:46.667Z,94.00
2017-11-09T15:08:14.289Z,94.00
2017-11-09T15:10:41.910Z,94.20
2017-11-09T15:13:10.305Z,94.30
2017-11-09T15:15:38.663Z,94.50
2017-11-09T15:18:07.783Z,94.60
2017-11-09T15:20:35.614Z,94.60
2017-11-09T15:23:03.205Z,94.60
2017-11-09T15:25:30.781Z,94.60
2017-11-09T15:27:58.440Z,94.80
2017-11-09T15:30:26.105Z,95.10
2017-11-09T15:32:53.780Z,94.90
2017-11-09T15:35:22.428Z,94.80
2017-11-09T15:37:50.025Z,94.80
2017-11-09T15:40:17.621Z,95.10
2017-11-09T15:42:45.242Z,95.20
2017-11-09T15:45:13.591Z,95.40
2017-11-09T15:47:41.173Z,95.40
2017-11-09T15:50:09.133Z,95.60
2017-11-09T15:52:36.730Z,95.60
2017-11-09T15:55:04.309Z,95.60
2017-11-09T15:57:32.072Z,95.50
2017-11-09T15:59:59.728Z,95.40
2017-11-09T16:02:27.308Z,95.60
2017-11-09T16:04:54.935Z,95.60
2017-11-09T16:07:22.522Z,95.60
2017-11-09T16:09:50.094Z,95.70
2017-11-09T16:12:17.720Z,95.80
2017-11-09T16:14:48.268Z,95.80
2017-11-09T16:17:15.846Z,95.80
2017-11-09T16:19:44.779Z,95.80
2017-11-09T16:22:12.366Z,95.80
2017-11-09T16:24:41.175Z,95.60
2017-11-09T16:27:08.990Z,95.60
2017-11-09T16:29:36.577Z,95.60
2017-11-09T16:32:04.153Z,95.60
2017-11-09T16:34:31.796Z,95.60
2017-11-09T16:36:59.390Z,95.50
2017-11-09T16:39:27.026Z,95.50
2017-11-09T16:41:54.640Z,95.60
2017-11-09T16:44:22.985Z,95.40
2017-11-09T16:46:50.649Z,95.40
2017-11-09T16:49:18.268Z,95.40
2017-11-09T16:51:45.851Z,95.20
2017-11-09T16:54:13.429Z,95.30
2017-11-09T16:56:42.836Z,95.20
2017-11-09T16:59:11.195Z,95.10
2017-11-09T17:01:38.775Z,95.10
2017-11-09T17:04:06.405Z,94.90
2017-11-09T17:06:33.991Z,94.90
2017-11-09T17:09:01.565Z,94.90
2017-11-09T17:11:29.389Z,94.80
2017-11-09T17:13:56.978Z,94.80
2017-11-09T17:16:25.313Z,94.60
2017-11-09T17:18:52.981Z,94.60
2017-11-09T17:21:20.587Z,94.60
2017-11-09T17:23:48.166Z,94.60
2017-11-09T17:26:16.046Z,94.60
2017-11-09T17:28:43.617Z,94.70
2017-11-09T17:31:11.198Z,95.00
2017-11-09T17:33:39.593Z,95.80
2017-11-09T17:36:07.946Z,95.60
2017-11-09T17:38:35.518Z,95.60
2017-11-09T17:41:04.042Z,95.70
2017-11-09T17:43:32.398Z,95.70
2017-11-09T17:45:59.987Z,95.70
2017-11-09T17:48:27.627Z,95.50
2017-11-09T17:50:55.199Z,98.00
2017-11-09T17:53:22.782Z,97.30
2017-11-09T17:55:50.411Z,97.10
2017-11-09T17:58:18.758Z,94.70
2017-11-09T18:00:46.338Z,94.70
2017-11-09T18:03:13.979Z,94.60
2017-11-09T18:05:41.645Z,94.10
2017-11-09T18:08:09.225Z,93.70
2017-11-09T18:10:36.858Z,94.00
2017-11-09T18:13:05.232Z,93.40
2017-11-09T18:15:33.574Z,93.70
2017-11-09T18:18:01.213Z,93.70
2017-11-09T18:20:28.802Z,94.00
2017-11-09T18:23:02.313Z,94.30
2017-11-09T18:25:29.895Z,94.90
2017-11-09T18:27:57.570Z,95.40
2017-11-09T18:30:25.407Z,95.70
2017-11-09T18:32:56.484Z,96.50
2017-11-09T18:35:24.251Z,96.50
2017-11-09T18:37:52.649Z,96.90
2017-11-09T18:40:23.896Z,96.90
2017-11-09T18:42:51.552Z,97.20
2017-11-09T18:45:19.180Z,97.70
2017-11-09T18:47:46.851Z,97.60
2017-11-09T18:50:14.605Z,97.70
2017-11-09T18:52:42.415Z,97.70
2017-11-09T18:55:10.171Z,97.90
2017-11-09T18:57:37.758Z,98.00
2017-11-09T19:00:05.398Z,98.00
2017-11-09T19:02:33.125Z,98.00
2017-11-09T19:05:00.755Z,98.00
2017-11-09T19:07:28.440Z,97.90
2017-11-09T19:09:56.424Z,97.90
2017-11-09T19:12:24.006Z,97.90
2017-11-09T19:14:51.813Z,98.00
2017-11-09T19:17:19.381Z,98.20
2017-11-09T19:19:47.319Z,98.00
2017-11-09T19:22:15.048Z,98.00
2017-11-09T19:24:42.626Z,98.00
2017-11-09T19:27:10.982Z,98.10
2017-11-09T19:29:38.618Z,98.10
2017-11-09T19:32:06.214Z,98.20
2017-11-09T19:34:33.804Z,98.30
2017-11-09T19:37:01.443Z,98.20
2017-11-09T19:39:29.037Z,98.40
2017-11-09T19:41:56.609Z,98.30
2017-11-09T19:44:24.247Z,98.30
2017-11-09T19:46:51.817Z,98.50
2017-11-09T19:49:19.390Z,98.60
2017-11-09T19:51:47.016Z,98.80
2017-11-09T19:54:14.595Z,98.80
2017-11-09T19:56:42.173Z,98.80
2017-11-09T19:59:09.940Z,99.00
2017-11-09T20:01:37.517Z,99.20
2017-11-09T20:04:05.120Z,99.30
2017-11-09T20:06:34.562Z,99.40
2017-11-09T20:09:02.157Z,99.60
2017-11-09T20:11:29.729Z,99.80
2017-11-09T20:13:57.990Z,99.80
2017-11-09T20:16:28.061Z,99.80
2017-11-09T20:18:55.700Z,99.90
2017-11-09T20:21:23.325Z,99.90
2017-11-09T20:23:51.669Z,99.90
2017-11-09T20:26:19.250Z,99.90
2017-11-09T20:28:47.165Z,99.90
2017-11-09T20:31:15.521Z,99.90
2017-11-09T20:33:43.168Z,99.90
2017-11-09T20:36:10.800Z,99.90
2017-11-09T20:38:39.340Z,99.90
2017-11-09T20:41:06.921Z,99.90
2017-11-09T20:43:34.546Z,99.90
2017-11-09T20:46:02.969Z,99.90
2017-11-09T20:48:30.541Z,99.90
2017-11-09T20:50:58.172Z,99.90
2017-11-09T20:53:26.516Z,99.50
2017-11-09T20:55:54.093Z,99.40
2017-11-09T20:58:21.747Z,99.30
2017-11-09T21:00:49.347Z,98.90
2017-11-09T21:03:17.096Z,98.90
2017-11-09T21:05:44.738Z,98.90
2017-11-09T21:08:14.818Z,98.40
2017-11-09T21:10:45.431Z,98.40
2017-11-09T21:13:13.165Z,98.30
2017-11-09T21:15:40.741Z,98.50
2017-11-09T21:18:08.387Z,98.50
2017-11-09T21:20:35.993Z,99.30
2017-11-09T21:23:04.345Z,99.80
2017-11-09T21:25:32.142Z,99.70
2017-11-09T21:27:59.715Z,99.90
2017-11-09T21:30:28.066Z,99.90
2017-11-09T21:32:55.714Z,99.90
2017-11-09T21:35:23.307Z,99.90
2017-11-09T21:37:50.882Z,99.90
2017-11-09T21:40:18.585Z,99.90
2017-11-09T21:42:46.170Z,99.90
2017-11-09T21:45:13.745Z,99.90
2017-11-09T21:47:41.363Z,99.90
2017-11-09T21:50:08.987Z,99.90
2017-11-09T21:52:36.548Z,99.90
2017-11-09T21:55:04.176Z,99.90
2017-11-09T21:57:31.753Z,99.90
2017-11-09T21:59:59.334Z,99.90
2017-11-09T22:02:27.054Z,99.90
2017-11-09T22:04:55.413Z,99.90
2017-11-09T22:07:23.006Z,99.90
2017-11-09T22:09:50.781Z,99.90
2017-11-09T22:12:18.353Z,99.90
2017-11-09T22:14:45.986Z,99.90
2017-11-09T22:17:13.606Z,99.90
2017-11-09T22:19:41.185Z,99.90
2017-11-09T22:22:08.761Z,99.90
2017-11-09T22:24:37.294Z,99.90
2017-11-09T22:27:04.862Z,99.90
2017-11-09T22:29:32.437Z,99.90
2017-11-09T22:32:00.055Z,99.90
2017-11-09T22:34:27.624Z,99.90
2017-11-09T22:36:56.070Z,99.90
2017-11-09T22:39:23.693Z,99.90
2017-11-09T22:41:53.098Z,99.90
2017-11-09T22:44:20.734Z,99.90
2017-11-09T22:46:48.450Z,99.90
2017-11-09T22:49:16.025Z,99.90
2017-11-09T22:51:43.613Z,99.90
2017-11-09T22:54:12.190Z,99.90
2017-11-09T22:56:39.822Z,99.90
2017-11-09T22:59:07.394Z,99.90
2017-11-09T23:01:35.166Z,99.90
2017-11-09T23:04:02.845Z,99.90
2017-11-09T23:06:30.441Z,99.90
2017-11-09T23:08:58.236Z,99.90
2017-11-09T23:11:25.814Z,99.90
2017-11-09T23:13:54.171Z,99.90
2017-11-09T23:16:21.891Z,99.90
2017-11-09T23:18:50.225Z,99.90
2017-11-09T23:21:17.806Z,99.90
2017-11-09T23:23:45.421Z,99.90
2017-11-09T23:26:13.773Z,99.90
2017-11-09T23:28:41.345Z,99.90
2017-11-09T23:31:08.961Z,99.90
2017-11-09T23:33:37.293Z,99.90
2017-11-09T23:36:04.966Z,99.90
2017-11-09T23:38:32.752Z,99.90
2017-11-09T23:41:00.328Z,99.90
2017-11-09T23:43:27.902Z,99.90
2017-11-09T23:45:55.609Z,99.90
2017-11-09T23:48:23.950Z,99.90
2017-11-09T23:50:51.518Z,99.90
2017-11-09T23:53:19.329Z,99.90
2017-11-09T23:55:46.964Z,99.90
2017-11-09T23:58:14.538Z,99.90
